Time;durP1;ratioP1;P1;durP2;ratioP2;P2;SDS_P1;SDS_P2;PMS_P1;PMS_P2;Temp;Humidity;BMP_temperature;BMP_pressure;BME280_temperature;BME280_humidity;BME280_pressure;Samples;Min_cycle;Max_cycle;Signal;HPM_P1;HPM_P2
2022/08/05 00:02:21;;;;;;;8.57;3.15;;;;;22.80;96163.00;;;;8340532;28;20559;-76
2022/08/05 00:06:25;;;;;;;3.20;2.95;;;;;22.70;96160.00;;;;8339639;28;20585;-71
2022/08/05 00:10:35;;;;;;;3.35;3.08;;;;;22.50;96167.00;;;;8333509;28;20217;-70
2022/08/05 00:14:40;;;;;;;3.15;2.90;;;;;22.40;96159.00;;;;8336977;28;20228;-69
2022/08/05 00:18:46;;;;;;;3.35;3.05;;;;;22.40;96152.00;;;;8332499;28;20220;-70
2022/08/05 00:22:50;;;;;;;9.85;3.45;;;;;22.30;96151.00;;;;8334079;28;20278;-72
2022/08/05 00:27:04;;;;;;;4.97;3.22;;;;;22.20;96148.00;;;;8336007;28;20228;-74
2022/08/05 00:31:17;;;;;;;3.72;3.00;;;;;22.20;96143.00;;;;8334025;28;20245;-74
2022/08/05 00:35:40;;;;;;;3.60;2.92;;;;;22.00;96141.00;;;;8342607;28;20228;-74
2022/08/05 00:40:04;;;;;;;3.90;3.20;;;;;21.90;96145.00;;;;8341995;28;20232;-74
2022/08/05 00:44:11;;;;;;;5.32;3.38;;;;;21.90;96143.00;;;;8328262;28;20228;-72
2022/08/05 00:48:17;;;;;;;7.05;3.72;;;;;21.80;96144.00;;;;8325696;28;20229;-72
2022/08/05 00:52:33;;;;;;;8.77;3.65;;;;;21.70;96135.00;;;;8330727;28;20278;-74
2022/08/05 00:56:41;;;;;;;4.10;3.50;;;;;21.70;96126.00;;;;8337593;28;20287;-74
2022/08/05 01:00:53;;;;;;;12.07;3.92;;;;;21.70;96130.00;;;;8338977;28;20227;-72
2022/08/05 01:04:58;;;;;;;5.10;3.75;;;;;21.70;96128.00;;;;8335112;28;20236;-72
2022/08/05 01:09:01;;;;;;;5.68;3.70;;;;;21.80;96135.00;;;;8332232;28;20236;-71
2022/08/05 01:13:13;;;;;;;5.20;3.28;;;;;21.70;96133.00;;;;8341178;28;20221;-74
2022/08/05 01:17:33;;;;;;;3.85;3.35;;;;;21.60;96133.00;;;;8336005;28;20287;-73
2022/08/05 01:21:57;;;;;;;4.32;3.60;;;;;21.50;96132.00;;;;8329708;28;20571;-71
2022/08/05 01:26:25;;;;;;;3.35;3.05;;;;;21.40;96134.00;;;;8341606;28;20846;-73
2022/08/05 01:30:36;;;;;;;4.57;3.55;;;;;21.40;96122.00;;;;8336821;28;20228;-72
2022/08/05 01:34:45;;;;;;;6.60;4.10;;;;;21.40;96115.00;;;;8334908;28;20331;-72
2022/08/05 01:38:51;;;;;;;4.10;3.70;;;;;21.30;96119.00;;;;8331702;28;20225;-71
2022/08/05 01:42:56;;;;;;;4.22;3.78;;;;;21.20;96121.00;;;;8331597;28;20290;-70
2022/08/05 01:47:02;;;;;;;6.85;3.85;;;;;21.20;96122.00;;;;8331497;28;20221;-72
2022/08/05 01:51:09;;;;;;;6.35;3.78;;;;;21.20;96116.00;;;;8332373;28;20229;-69
2022/08/05 01:55:18;;;;;;;7.35;3.85;;;;;21.30;96113.00;;;;8324290;28;20319;-70
2022/08/05 01:59:23;;;;;;;4.18;3.88;;;;;21.20;96110.00;;;;8332229;28;20698;-69
2022/08/05 02:03:33;;;;;;;5.00;4.40;;;;;21.20;96112.00;;;;8331358;28;20237;-69
2022/08/05 02:07:36;;;;;;;6.47;4.68;;;;;21.20;96111.00;;;;8340001;28;20320;-72
2022/08/05 02:11:45;;;;;;;8.27;4.35;;;;;21.20;96111.00;;;;8337063;28;20231;-69
2022/08/05 02:16:01;;;;;;;4.80;4.40;;;;;21.20;96110.00;;;;8333694;28;20223;-70
2022/08/05 02:20:12;;;;;;;7.95;4.00;;;;;21.10;96109.00;;;;8336164;28;20228;-71
2022/08/05 02:24:25;;;;;;;6.00;3.97;;;;;21.00;96105.00;;;;8335592;28;20208;-71
2022/08/05 02:28:31;;;;;;;5.07;4.57;;;;;20.80;96106.00;;;;8340732;28;20667;-71
2022/08/05 02:32:42;;;;;;;4.85;4.25;;;;;20.80;96102.00;;;;8344432;28;20228;-71
2022/08/05 02:36:51;;;;;;;4.90;3.72;;;;;20.70;96108.00;;;;8338733;28;20217;-73
2022/08/05 02:40:57;;;;;;;11.93;4.95;;;;;20.60;96108.00;;;;8336852;28;20236;-74
2022/08/05 02:45:10;;;;;;;5.95;4.53;;;;;20.60;96102.00;;;;8334695;28;20705;-69
2022/08/05 02:49:15;;;;;;;4.72;4.22;;;;;20.60;96112.00;;;;8339949;28;20228;-73
2022/08/05 02:53:20;;;;;;;6.30;4.38;;;;;20.50;96113.00;;;;8339346;28;20243;-65
2022/08/05 02:57:25;;;;;;;5.35;4.85;;;;;20.40;96105.00;;;;8328533;28;20221;-71
2022/08/05 03:01:50;;;;;;;5.65;4.70;;;;;20.40;96108.00;;;;8351203;22;20290;-75
2022/08/05 03:05:54;;;;;;;6.13;4.75;;;;;20.40;96112.00;;;;8336488;28;20220;-75
2022/08/05 03:10:19;;;;;;;4.72;4.22;;;;;20.40;96099.00;;;;8342382;28;20274;-71
2022/08/05 03:14:26;;;;;;;4.75;4.35;;;;;20.40;96091.00;;;;8351862;28;20247;-71
2022/08/05 03:18:30;;;;;;;6.03;4.82;;;;;20.40;96090.00;;;;8346396;28;20745;-72
2022/08/05 03:22:33;;;;;;;11.13;4.40;;;;;20.50;96088.00;;;;8349278;28;20221;-71
2022/08/05 03:26:38;;;;;;;4.47;4.07;;;;;20.40;96090.00;;;;8349433;28;20232;-77
2022/08/05 03:30:42;;;;;;;4.57;4.07;;;;;20.50;96087.00;;;;8354645;28;20236;-76
2022/08/05 03:34:49;;;;;;;5.20;4.70;;;;;20.40;96088.00;;;;8351691;28;20665;-71
2022/08/05 03:38:53;;;;;;;5.15;4.43;;;;;20.40;96087.00;;;;8350955;28;20220;-69
2022/08/05 03:42:58;;;;;;;4.60;4.30;;;;;20.30;96083.00;;;;8351224;28;20224;-70
2022/08/05 03:47:21;;;;;;;4.88;4.38;;;;;20.20;96080.00;;;;8341574;28;20286;-73
2022/08/05 03:51:30;;;;;;;4.80;4.30;;;;;20.20;96082.00;;;;8349634;28;20323;-70
2022/08/05 03:56:00;;;;;;;7.03;4.30;;;;;20.30;96077.00;;;;8343230;28;20236;-73
2022/08/05 04:00:16;;;;;;;5.30;4.72;;;;;20.30;96078.00;;;;8345478;28;20221;-72
2022/08/05 04:04:21;;;;;;;6.90;4.50;;;;;20.30;96078.00;;;;8321359;28;20259;-71
2022/08/05 04:08:29;;;;;;;7.97;4.80;;;;;20.30;96077.00;;;;8333938;28;20670;-73
2022/08/05 04:12:39;;;;;;;4.18;3.88;;;;;20.30;96075.00;;;;8340439;28;20233;-72
2022/08/05 04:16:43;;;;;;;6.93;4.53;;;;;20.40;96066.00;;;;8345722;28;20953;-72
2022/08/05 04:20:53;;;;;;;5.38;4.38;;;;;20.50;96074.00;;;;8342769;28;20223;-71
2022/08/05 04:24:56;;;;;;;4.88;4.38;;;;;20.70;96069.00;;;;8345878;28;20224;-78
2022/08/05 04:29:03;;;;;;;5.07;4.57;;;;;20.90;96072.00;;;;8349276;28;20224;-74
2022/08/05 04:33:10;;;;;;;7.45;4.65;;;;;21.20;96077.00;;;;8346377;28;20463;-69
2022/08/05 04:37:14;;;;;;;4.57;4.20;;;;;21.40;96079.00;;;;8345125;28;20224;-73
2022/08/05 04:41:19;;;;;;;6.85;4.25;;;;;21.50;96071.00;;;;8343233;28;20712;-68
2022/08/05 04:45:36;;;;;;;5.40;4.35;;;;;21.50;96074.00;;;;8346668;28;20303;-74
2022/08/05 04:49:52;;;;;;;4.97;4.40;;;;;21.50;96067.00;;;;8342227;28;20243;-72
2022/08/05 04:54:05;;;;;;;5.00;4.18;;;;;21.50;96076.00;;;;8339054;28;20213;-76
2022/08/05 04:58:09;;;;;;;4.50;4.20;;;;;21.60;96075.00;;;;8343742;28;20775;-71
2022/08/05 05:02:14;;;;;;;4.53;4.18;;;;;21.80;96075.00;;;;8328235;28;20324;-68
2022/08/05 05:06:38;;;;;;;9.88;4.63;;;;;22.10;96087.00;;;;8300864;28;20279;-73
2022/08/05 05:10:47;;;;;;;6.53;4.35;;;;;22.40;96083.00;;;;8304127;28;20229;-74
2022/08/05 05:15:00;;;;;;;4.70;4.18;;;;;22.60;96101.00;;;;8306531;28;20686;-73
2022/08/05 05:19:08;;;;;;;11.93;4.60;;;;;22.90;96101.00;;;;8304864;28;20226;-76
2022/08/05 05:23:26;;;;;;;10.15;4.45;;;;;23.20;96113.00;;;;8301271;28;20401;-74
2022/08/05 05:27:51;;;;;;;5.32;4.20;;;;;23.40;96151.00;;;;8306652;28;20283;-73
2022/08/05 05:31:58;;;;;;;7.68;4.47;;;;;23.60;96158.00;;;;8299261;28;20240;-72
2022/08/05 05:36:01;;;;;;;4.22;3.80;;;;;23.80;96168.00;;;;8302328;28;20325;-71
2022/08/05 05:40:08;;;;;;;7.43;4.18;;;;;24.10;96153.00;;;;8300161;28;20245;-72
2022/08/05 05:44:14;;;;;;;7.10;3.97;;;;;24.40;96154.00;;;;8300085;28;20667;-70
2022/08/05 05:48:37;;;;;;;6.78;4.15;;;;;24.90;96156.00;;;;8301108;28;20313;-70
2022/08/05 05:52:41;;;;;;;4.60;4.13;;;;;25.30;96139.00;;;;8294988;28;20237;-73
2022/08/05 05:56:50;;;;;;;6.03;3.90;;;;;25.50;96132.00;;;;8303614;28;20300;-76
2022/08/05 06:00:54;;;;;;;7.00;4.25;;;;;25.60;96134.00;;;;8291937;28;20228;-79
2022/08/05 06:04:58;;;;;;;4.60;3.60;;;;;25.80;96138.00;;;;8289928;28;20235;-79
2022/08/05 06:09:04;;;;;;;4.95;3.97;;;;;26.00;96129.00;;;;8309584;28;20229;-83
2022/08/05 06:13:11;;;;;;;4.03;3.72;;;;;26.30;96125.00;;;;8325128;28;20244;-73
2022/08/05 06:17:14;;;;;;;5.70;3.70;;;;;26.80;96123.00;;;;8340052;28;20569;-76
2022/08/05 06:21:26;;;;;;;4.28;3.97;;;;;27.40;96121.00;;;;8329848;28;20546;-78
2022/08/05 06:25:39;;;;;;;5.97;3.70;;;;;27.90;96120.00;;;;8286405;28;20241;-83
2022/08/05 06:30:05;;;;;;;7.55;4.03;;;;;28.40;96109.00;;;;8292154;28;20780;-79
2022/08/05 06:34:23;;;;;;;7.35;3.78;;;;;28.90;96103.00;;;;8312335;28;20582;-76
2022/08/05 06:38:29;;;;;;;5.07;3.47;;;;;29.20;96118.00;;;;8303132;28;20225;-73
2022/08/05 06:42:39;;;;;;;6.47;4.40;;;;;29.30;96101.00;;;;8326744;28;20576;-73
2022/08/05 06:46:43;;;;;;;9.07;4.03;;;;;29.50;96116.00;;;;8333573;28;20313;-73
2022/08/05 06:50:52;;;;;;;9.75;3.63;;;;;29.80;96122.00;;;;8327840;28;20327;-74
2022/08/05 06:54:55;;;;;;;4.05;3.53;;;;;30.10;96145.00;;;;8311671;28;20312;-73
2022/08/05 06:58:59;;;;;;;6.70;3.75;;;;;30.10;96179.00;;;;8328607;28;20247;-75
2022/08/05 07:03:03;;;;;;;4.18;3.78;;;;;30.40;96150.00;;;;8330822;28;20256;-73
2022/08/05 07:07:11;;;;;;;6.05;4.07;;;;;30.90;96160.00;;;;8326908;28;20616;-74
2022/08/05 07:11:17;;;;;;;6.13;4.10;;;;;30.80;96164.00;;;;8303808;28;21033;-72
2022/08/05 07:20:08;;;;;;;8.23;4.28;;;;;30.90;96170.00;;;;8330317;28;20304;-72
2022/08/05 07:24:32;;;;;;;9.90;4.18;;;;;30.90;96189.00;;;;8321583;28;20726;-69
2022/08/05 07:28:46;;;;;;;5.63;4.22;;;;;31.10;96195.00;;;;8329932;28;20332;-71
2022/08/05 07:32:50;;;;;;;6.60;4.50;;;;;32.00;96189.00;;;;8320628;28;20328;-72
2022/08/05 07:36:56;;;;;;;5.72;3.90;;;;;33.10;96173.00;;;;8322844;28;20307;-72
2022/08/05 07:41:00;;;;;;;4.05;3.75;;;;;34.10;96195.00;;;;8320449;28;20311;-73
2022/08/05 07:45:23;;;;;;;6.03;3.67;;;;;34.30;96197.00;;;;8331427;28;20240;-73
2022/08/05 07:49:47;;;;;;;5.35;3.70;;;;;34.30;96210.00;;;;8322335;28;20630;-73
2022/08/05 07:54:13;;;;;;;3.90;3.30;;;;;34.30;96243.00;;;;8324368;28;20326;-73
2022/08/05 07:58:20;;;;;;;6.80;3.50;;;;;34.00;96230.00;;;;8329560;28;20734;-73
2022/08/05 08:02:44;;;;;;;4.80;3.67;;;;;33.60;96232.00;;;;8320725;28;20285;-76
2022/08/05 08:07:07;;;;;;;8.93;3.70;;;;;33.50;96240.00;;;;8329866;28;20224;-73
2022/08/05 08:11:14;;;;;;;5.60;4.00;;;;;33.70;96232.00;;;;8340788;28;20983;-77
2022/08/05 08:15:18;;;;;;;4.20;3.60;;;;;33.90;96229.00;;;;8337227;28;20239;-77
2022/08/05 08:19:41;;;;;;;8.73;3.40;;;;;33.90;96249.00;;;;8327029;28;20294;-76
2022/08/05 08:24:07;;;;;;;3.60;3.30;;;;;33.60;96260.00;;;;8331561;28;20341;-80
2022/08/05 08:28:17;;;;;;;6.68;3.85;;;;;33.60;96278.00;;;;8332332;28;20683;-77
2022/08/05 08:32:39;;;;;;;5.20;2.90;;;;;33.20;96271.00;;;;8341115;28;20303;-75
2022/08/05 08:36:54;;;;;;;6.97;3.72;;;;;33.20;96269.00;;;;8319261;28;21649;-76
2022/08/05 08:41:10;;;;;;;4.20;3.80;;;;;33.40;96287.00;;;;8328475;28;20586;-74
2022/08/05 08:45:20;;;;;;;7.18;3.72;;;;;33.30;96284.00;;;;8338067;28;20231;-77
2022/08/05 08:49:35;;;;;;;4.00;3.42;;;;;33.20;96288.00;;;;8331071;28;20316;-79
2022/08/05 08:53:59;;;;;;;4.78;3.67;;;;;33.50;96282.00;;;;8336999;28;20678;-75
2022/08/05 08:58:03;;;;;;;8.10;4.15;;;;;34.00;96275.00;;;;8343973;28;20239;-75
2022/08/05 09:02:07;;;;;;;3.53;3.33;;;;;34.00;96285.00;;;;8338089;28;20330;-76
2022/08/05 09:06:11;;;;;;;6.38;3.50;;;;;34.10;96293.00;;;;8326412;28;20308;-76
2022/08/05 09:10:21;;;;;;;7.93;3.55;;;;;34.40;96307.00;;;;8331475;28;20236;-76
2022/08/05 09:14:31;;;;;;;5.32;3.80;;;;;34.50;96306.00;;;;8332447;28;22271;-75
2022/08/05 09:18:56;;;;;;;4.07;3.53;;;;;34.30;96294.00;;;;8331036;28;20233;-74
2022/08/05 09:23:13;;;;;;;5.95;3.35;;;;;34.80;96313.00;;;;8336011;28;20248;-74
2022/08/05 09:27:31;;;;;;;5.03;3.35;;;;;34.30;96324.00;;;;8327571;28;20221;-74
2022/08/05 09:32:05;;;;;;;4.22;3.30;;;;;33.70;96318.00;;;;8343517;28;20585;-73
2022/08/05 09:36:44;;;;;;;4.93;3.60;;;;;34.00;96314.00;;;;8330413;28;20237;-71
2022/08/05 09:41:05;;;;;;;5.13;3.10;;;;;34.20;96312.00;;;;8325039;28;20221;-73
2022/08/05 09:45:11;;;;;;;10.38;3.00;;;;;34.80;96314.00;;;;8328588;28;20216;-74
2022/08/05 09:49:34;;;;;;;6.28;3.10;;;;;34.80;96329.00;;;;8336356;28;20275;-74
2022/08/05 09:53:59;;;;;;;3.20;3.00;;;;;35.00;96336.00;;;;8338419;28;20286;-74
2022/08/05 09:58:10;;;;;;;6.43;2.97;;;;;34.60;96355.00;;;;8327994;28;20620;-73
2022/08/05 10:02:13;;;;;;;8.25;3.63;;;;;34.40;96339.00;;;;8317238;28;20233;-74
2022/08/05 10:06:22;;;;;;;5.68;2.70;;;;;34.30;96338.00;;;;8311214;28;20226;-73
2022/08/05 10:10:31;;;;;;;2.70;2.50;;;;;34.80;96342.00;;;;8301004;28;20680;-74
2022/08/05 10:14:34;;;;;;;4.30;2.42;;;;;35.00;96353.00;;;;8299867;28;20951;-74
2022/08/05 10:18:38;;;;;;;4.15;2.55;;;;;35.30;96329.00;;;;8307715;28;20225;-74
2022/08/05 10:22:43;;;;;;;3.17;2.20;;;;;35.70;96349.00;;;;8310835;28;20630;-73
2022/08/05 10:26:55;;;;;;;2.10;1.95;;;;;35.10;96338.00;;;;8300713;28;20732;-73
2022/08/05 10:31:03;;;;;;;5.13;2.00;;;;;34.20;96343.00;;;;8302971;28;20244;-72
2022/08/05 10:35:28;;;;;;;3.17;2.15;;;;;34.00;96337.00;;;;8300656;28;20294;-73
2022/08/05 10:39:46;;;;;;;4.10;2.15;;;;;34.90;96329.00;;;;8305137;28;20238;-73
2022/08/05 10:44:12;;;;;;;3.45;2.33;;;;;35.60;96327.00;;;;8305794;28;20331;-73
2022/08/05 10:48:36;;;;;;;2.25;2.13;;;;;36.00;96329.00;;;;8291634;28;20321;-72
2022/08/05 10:52:59;;;;;;;2.50;1.98;;;;;36.40;96329.00;;;;8289814;28;20670;-72
2022/08/05 10:57:03;;;;;;;2.67;2.35;;;;;37.00;96337.00;;;;8301259;28;20217;-71
2022/08/05 11:01:09;;;;;;;6.32;2.05;;;;;37.40;96344.00;;;;8303906;28;20244;-73
2022/08/05 11:05:17;;;;;;;2.65;2.17;;;;;36.70;96341.00;;;;8298564;28;20744;-72
2022/08/05 11:09:22;;;;;;;3.15;2.50;;;;;36.40;96339.00;;;;8306352;28;20230;-72
2022/08/05 11:13:46;;;;;;;2.40;2.20;;;;;36.40;96336.00;;;;8297310;28;20255;-73
2022/08/05 11:18:09;;;;;;;8.05;2.20;;;;;36.60;96324.00;;;;8304354;28;20256;-72
2022/08/05 11:22:39;;;;;;;5.75;2.40;;;;;37.00;96323.00;;;;8309942;28;20221;-72
2022/08/05 11:26:44;;;;;;;2.70;2.50;;;;;37.20;96319.00;;;;8300311;28;20582;-72
2022/08/05 11:31:31;;;;;;;3.28;2.33;;;;;37.70;96320.00;;;;8301746;28;20317;-73
2022/08/05 11:35:57;;;;;;;3.60;2.40;;;;;38.40;96317.00;;;;8308793;28;20302;-75
2022/08/05 11:40:56;;;;;;;4.65;2.45;;;;;38.50;96325.00;;;;8308612;28;20855;-73
2022/08/05 11:45:08;;;;;;;2.13;1.98;;;;;38.70;96325.00;;;;8303209;28;20351;-73
2022/08/05 11:49:31;;;;;;;2.83;2.10;;;;;39.20;96330.00;;;;8311298;28;20908;-73
2022/08/05 11:53:37;;;;;;;3.45;2.20;;;;;39.40;96329.00;;;;8311534;28;20277;-73
2022/08/05 11:57:46;;;;;;;2.65;2.20;;;;;39.50;96323.00;;;;8311268;28;20279;-73
2022/08/05 12:02:09;;;;;;;6.55;1.98;;;;;39.20;96317.00;;;;8272520;28;20738;-73
2022/08/05 12:06:35;;;;;;;5.30;2.10;;;;;39.30;96319.00;;;;8296651;28;20311;-72
2022/08/05 12:10:56;;;;;;;3.22;2.13;;;;;39.40;96317.00;;;;8329618;28;20221;-76
2022/08/05 12:14:59;;;;;;;2.30;2.20;;;;;39.10;96313.00;;;;8334489;28;20233;-74
2022/08/05 12:19:06;;;;;;;3.45;2.10;;;;;38.60;96310.00;;;;8345498;28;20224;-74
2022/08/05 12:23:10;;;;;;;4.30;2.30;;;;;38.40;96301.00;;;;8332127;28;20226;-74
2022/08/05 12:27:21;;;;;;;4.65;2.00;;;;;38.30;96295.00;;;;8335981;28;20220;-74
2022/08/05 12:31:27;;;;;;;5.95;2.38;;;;;37.80;96302.00;;;;8338233;28;20307;-74
2022/08/05 12:35:48;;;;;;;3.50;2.10;;;;;36.80;96304.00;;;;8333657;28;20304;-73
2022/08/05 12:39:56;;;;;;;8.10;2.50;;;;;36.60;96303.00;;;;8339209;28;20244;-73
2022/08/05 12:44:16;;;;;;;2.42;2.20;;;;;36.60;96285.00;;;;8338610;28;20642;-73
2022/08/05 12:48:39;;;;;;;3.20;2.03;;;;;36.70;96293.00;;;;8337995;28;20237;-72
2022/08/05 12:52:55;;;;;;;3.42;2.22;;;;;36.90;96283.00;;;;8337261;28;20271;-73
2022/08/05 12:57:01;;;;;;;4.40;2.30;;;;;37.00;96280.00;;;;8331518;28;20706;-73
2022/08/05 13:01:07;;;;;;;2.22;2.10;;;;;37.10;96286.00;;;;8328464;28;20694;-73
2022/08/05 13:05:30;;;;;;;2.42;2.10;;;;;36.80;96280.00;;;;8330710;28;20290;-73
2022/08/05 13:09:40;;;;;;;2.47;2.10;;;;;37.10;96284.00;;;;8341690;28;20221;-73
2022/08/05 13:13:49;;;;;;;6.18;2.28;;;;;37.00;96281.00;;;;8345555;28;20229;-72
2022/08/05 13:18:10;;;;;;;2.15;2.00;;;;;36.80;96273.00;;;;8343970;28;20242;-72
2022/08/05 13:22:22;;;;;;;10.00;2.30;;;;;36.80;96277.00;;;;8345099;28;20319;-72
2022/08/05 13:26:33;;;;;;;2.13;2.03;;;;;37.00;96277.00;;;;8341715;28;20224;-72
2022/08/05 13:30:36;;;;;;;2.25;2.10;;;;;37.20;96278.00;;;;8343407;28;20654;-70
2022/08/05 13:34:42;;;;;;;2.17;2.03;;;;;37.50;96269.00;;;;8333763;28;20239;-77
2022/08/05 13:38:45;;;;;;;3.53;1.90;;;;;38.10;96266.00;;;;8341372;28;20235;-75
2022/08/05 13:42:56;;;;;;;3.42;2.15;;;;;38.80;96261.00;;;;8342549;28;20232;-73
2022/08/05 13:46:59;;;;;;;2.55;2.35;;;;;39.70;96265.00;;;;8336712;28;20236;-79
2022/08/05 13:51:13;;;;;;;2.65;2.00;;;;;40.30;96251.00;;;;8341012;28;20668;-77
2022/08/05 13:55:17;;;;;;;2.60;1.85;;;;;40.60;96248.00;;;;8343253;28;20551;-71
2022/08/05 13:59:42;;;;;;;4.90;2.30;;;;;40.60;96255.00;;;;8340129;28;20297;-72
2022/08/05 14:08:23;;;;;;;2.30;2.10;;;;;40.80;96249.00;;;;8341569;28;20704;-73
2022/08/05 14:12:34;;;;;;;2.10;2.00;;;;;40.90;96246.00;;;;8332797;28;20221;-71
2022/08/05 14:16:37;;;;;;;3.20;2.13;;;;;40.70;96248.00;;;;8333522;28;20228;-71
2022/08/05 14:20:44;;;;;;;3.17;1.95;;;;;40.30;96239.00;;;;8340543;28;20244;-71
2022/08/05 14:24:51;;;;;;;2.13;2.03;;;;;40.20;96237.00;;;;8346209;28;20228;-73
2022/08/05 14:28:54;;;;;;;4.00;2.17;;;;;40.10;96241.00;;;;8345966;28;20228;-72
2022/08/05 14:32:58;;;;;;;2.67;2.47;;;;;40.50;96234.00;;;;8338835;28;20236;-73
2022/08/05 14:37:01;;;;;;;3.17;2.08;;;;;41.00;96212.00;;;;8344613;28;20238;-72
2022/08/05 14:41:06;;;;;;;3.25;2.17;;;;;41.10;96230.00;;;;8340420;28;20315;-74
2022/08/05 14:45:11;;;;;;;4.43;2.20;;;;;40.70;96228.00;;;;8342188;28;20329;-73
2022/08/05 14:49:14;;;;;;;7.18;2.47;;;;;40.90;96214.00;;;;8346236;28;20335;-73
2022/08/05 14:53:17;;;;;;;2.35;2.15;;;;;41.10;96214.00;;;;8344849;28;20316;-71
2022/08/05 14:57:22;;;;;;;2.45;2.25;;;;;41.10;96202.00;;;;8344491;28;20690;-73
2022/08/05 15:01:35;;;;;;;3.03;1.95;;;;;40.40;96209.00;;;;8335885;28;20239;-72
2022/08/05 15:05:51;;;;;;;3.58;2.55;;;;;39.40;96207.00;;;;8325334;28;20696;-72
2022/08/05 15:10:14;;;;;;;3.60;2.10;;;;;38.80;96206.00;;;;8325561;28;20224;-73
2022/08/05 15:14:19;;;;;;;6.38;2.33;;;;;38.30;96199.00;;;;8328483;28;20232;-72
2022/08/05 15:18:44;;;;;;;2.08;1.98;;;;;38.20;96194.00;;;;8337626;28;20737;-73
2022/08/05 15:22:49;;;;;;;2.67;1.98;;;;;38.40;96188.00;;;;8330055;28;20626;-74
2022/08/05 15:26:57;;;;;;;1.80;1.80;;;;;38.20;96191.00;;;;8336182;28;20225;-72
2022/08/05 15:31:02;;;;;;;3.88;2.80;;;;;38.50;96196.00;;;;8342430;28;20689;-74
2022/08/05 15:35:08;;;;;;;5.47;2.08;;;;;38.40;96192.00;;;;8331944;28;20243;-73
2022/08/05 15:39:14;;;;;;;1.85;1.70;;;;;38.50;96199.00;;;;8331733;28;20296;-72
2022/08/05 15:43:37;;;;;;;2.22;1.88;;;;;38.40;96203.00;;;;8333037;28;20618;-73
2022/08/05 15:47:50;;;;;;;2.15;1.75;;;;;38.30;96207.00;;;;8329612;28;20220;-76
2022/08/05 15:51:59;;;;;;;2.72;2.03;;;;;37.80;96207.00;;;;8327182;28;20229;-75
2022/08/05 15:56:18;;;;;;;3.10;2.20;;;;;37.70;96219.00;;;;8313390;28;20229;-74
2022/08/05 16:00:22;;;;;;;3.90;2.25;;;;;37.90;96217.00;;;;8328799;28;20599;-75
2022/08/05 16:04:46;;;;;;;2.40;2.20;;;;;38.20;96210.00;;;;8323371;28;20346;-74
2022/08/05 16:08:51;;;;;;;4.32;2.10;;;;;38.40;96219.00;;;;8328918;28;20228;-73
2022/08/05 16:12:57;;;;;;;3.10;1.83;;;;;37.90;96219.00;;;;8334876;28;20217;-72
2022/08/05 16:17:01;;;;;;;2.17;2.03;;;;;37.90;96219.00;;;;8332656;28;20245;-72
2022/08/05 16:21:06;;;;;;;3.55;2.20;;;;;37.70;96223.00;;;;8333929;28;20300;-71
2022/08/05 16:25:09;;;;;;;2.53;2.30;;;;;37.70;96230.00;;;;8338701;28;20235;-72
2022/08/05 16:29:13;;;;;;;4.53;2.10;;;;;37.50;96230.00;;;;8328156;28;20248;-73
2022/08/05 16:33:16;;;;;;;2.45;2.05;;;;;37.30;96230.00;;;;8334031;28;20331;-72
2022/08/05 16:37:21;;;;;;;2.20;2.10;;;;;37.00;96220.00;;;;8331879;28;20231;-72
2022/08/05 16:41:44;;;;;;;2.47;2.00;;;;;36.60;96234.00;;;;8330777;28;20318;-71
2022/08/05 16:46:10;;;;;;;2.60;1.95;;;;;36.50;96232.00;;;;8336774;28;20283;-71
2022/08/05 16:50:26;;;;;;;6.80;2.10;;;;;36.30;96229.00;;;;8332583;28;20224;-71
2022/08/05 16:54:31;;;;;;;2.53;2.33;;;;;36.30;96227.00;;;;8336859;28;20232;-71
2022/08/05 16:58:35;;;;;;;3.60;2.30;;;;;36.20;96229.00;;;;8335632;28;20228;-72
2022/08/05 17:02:38;;;;;;;2.10;1.90;;;;;36.20;96231.00;;;;8330971;28;20256;-72
2022/08/05 17:06:41;;;;;;;4.47;2.10;;;;;36.10;96229.00;;;;8331042;28;20241;-72
2022/08/05 17:10:56;;;;;;;3.13;2.20;;;;;36.20;96227.00;;;;8327717;28;20231;-71
2022/08/05 17:15:00;;;;;;;3.75;1.98;;;;;36.20;96233.00;;;;8339387;28;20275;-72
2022/08/05 17:19:05;;;;;;;3.42;2.08;;;;;36.00;96234.00;;;;8334292;28;20227;-72
2022/08/05 17:23:12;;;;;;;2.42;2.10;;;;;35.70;96231.00;;;;8335776;28;20223;-72
2022/08/05 17:27:37;;;;;;;2.80;2.10;;;;;35.40;96223.00;;;;8334120;28;20311;-72
2022/08/05 17:31:40;;;;;;;3.20;1.95;;;;;35.00;96233.00;;;;8340356;28;20733;-72
2022/08/05 17:36:00;;;;;;;2.35;2.25;;;;;34.60;96232.00;;;;8331575;28;20228;-72
2022/08/05 17:40:23;;;;;;;4.32;1.98;;;;;34.20;96238.00;;;;8334146;28;20318;-71
2022/08/05 17:44:28;;;;;;;3.83;2.35;;;;;34.00;96239.00;;;;8332939;28;20240;-72
2022/08/05 17:48:34;;;;;;;2.20;2.10;;;;;33.80;96236.00;;;;8327813;28;20774;-72
2022/08/05 17:52:38;;;;;;;2.38;1.90;;;;;33.70;96239.00;;;;8329340;28;20690;-71
2022/08/05 17:56:56;;;;;;;2.40;2.25;;;;;33.50;96249.00;;;;8335667;28;20232;-71
2022/08/05 18:01:02;;;;;;;2.65;2.45;;;;;33.30;96250.00;;;;8332052;28;20228;-71
2022/08/05 18:05:12;;;;;;;2.42;2.20;;;;;33.10;96256.00;;;;8307642;28;20540;-72
2022/08/05 18:09:19;;;;;;;5.93;2.25;;;;;32.90;96248.00;;;;8303050;28;20708;-71
2022/08/05 18:13:22;;;;;;;2.22;2.10;;;;;32.70;96245.00;;;;8303429;28;20229;-72
2022/08/05 18:17:29;;;;;;;2.63;2.30;;;;;32.50;96247.00;;;;8303402;28;20316;-71
2022/08/05 18:21:53;;;;;;;3.58;2.28;;;;;32.30;96242.00;;;;8294953;28;20221;-72
2022/08/05 18:26:11;;;;;;;8.75;2.63;;;;;32.10;96256.00;;;;8306371;28;20391;-71
2022/08/05 18:30:15;;;;;;;7.32;2.38;;;;;31.90;96257.00;;;;8306135;28;20308;-72
2022/08/05 18:34:20;;;;;;;2.60;2.13;;;;;31.80;96264.00;;;;8303760;28;20241;-72
2022/08/05 18:38:23;;;;;;;3.25;2.55;;;;;31.60;96274.00;;;;8308798;28;20217;-72
2022/08/05 18:42:28;;;;;;;3.50;2.17;;;;;31.40;96282.00;;;;8299425;28;20221;-72
2022/08/05 18:46:31;;;;;;;4.15;2.00;;;;;31.20;96300.00;;;;8305549;28;20315;-72
2022/08/05 18:55:06;;;;;;;7.03;2.20;;;;;30.80;96298.00;;;;8310533;28;20225;-70
2022/08/05 18:59:12;;;;;;;2.40;2.20;;;;;30.60;96302.00;;;;8305430;28;20228;-69
2022/08/05 19:03:37;;;;;;;4.60;2.30;;;;;30.40;96304.00;;;;8320777;28;20928;-71
2022/08/05 19:08:01;;;;;;;4.40;2.13;;;;;30.20;96316.00;;;;8334260;28;20229;-70
2022/08/05 19:12:05;;;;;;;2.75;2.30;;;;;30.10;96321.00;;;;8332528;28;20263;-70
2022/08/05 19:16:12;;;;;;;2.60;2.28;;;;;30.00;96330.00;;;;8335431;28;20251;-70
2022/08/05 19:20:31;;;;;;;2.78;2.15;;;;;29.80;96338.00;;;;8327711;28;20295;-70
2022/08/05 19:24:37;;;;;;;2.60;2.40;;;;;29.70;96341.00;;;;8333163;28;20275;-71
2022/08/05 19:28:56;;;;;;;3.25;2.03;;;;;29.60;96340.00;;;;8334359;28;20347;-72
2022/08/05 19:32:59;;;;;;;5.03;2.42;;;;;29.50;96355.00;;;;8320377;28;20227;-71
2022/08/05 19:37:06;;;;;;;4.43;2.40;;;;;29.30;96357.00;;;;8327362;28;20787;-71
2022/08/05 19:41:11;;;;;;;4.80;2.60;;;;;29.20;96367.00;;;;8337192;28;20225;-71
2022/08/05 19:45:14;;;;;;;2.83;2.20;;;;;29.10;96380.00;;;;8325597;28;20822;-72
2022/08/05 19:49:20;;;;;;;4.32;2.35;;;;;28.90;96371.00;;;;8330772;28;20220;-72
2022/08/05 19:53:23;;;;;;;6.25;2.60;;;;;28.80;96379.00;;;;8331848;28;20768;-72
2022/08/05 19:57:48;;;;;;;6.65;2.88;;;;;28.60;96372.00;;;;8333763;28;20644;-69
2022/08/05 20:02:11;;;;;;;2.95;2.28;;;;;28.50;96374.00;;;;8342647;28;20232;-69
2022/08/05 20:06:14;;;;;;;6.82;2.65;;;;;28.30;96375.00;;;;8336447;28;20252;-69
2022/08/05 20:10:31;;;;;;;3.83;2.80;;;;;28.20;96374.00;;;;8341159;28;20224;-69
2022/08/05 20:14:36;;;;;;;3.88;2.63;;;;;28.20;96378.00;;;;8318458;28;20225;-69
2022/08/05 20:18:40;;;;;;;4.85;3.10;;;;;28.10;96377.00;;;;8328692;28;20255;-69
2022/08/05 20:22:46;;;;;;;4.32;2.72;;;;;28.00;96381.00;;;;8344573;28;20277;-68
2022/08/05 20:26:51;;;;;;;3.13;2.50;;;;;27.90;96384.00;;;;8336732;28;20255;-68
2022/08/05 20:30:56;;;;;;;7.82;2.90;;;;;27.80;96372.00;;;;8340181;28;20220;-67
2022/08/05 20:34:59;;;;;;;3.88;2.97;;;;;27.80;96373.00;;;;8327512;28;20586;-67
2022/08/05 20:39:02;;;;;;;3.38;2.83;;;;;27.70;96373.00;;;;8338287;28;20751;-67
2022/08/05 20:43:09;;;;;;;4.13;2.63;;;;;27.60;96374.00;;;;8336751;28;20383;-67
2022/08/05 20:47:15;;;;;;;3.67;2.28;;;;;27.60;96383.00;;;;8339137;28;20247;-67
2022/08/05 20:51:20;;;;;;;2.85;2.65;;;;;27.50;96405.00;;;;8334732;28;21094;-67
2022/08/05 20:55:23;;;;;;;2.72;2.53;;;;;27.40;96406.00;;;;8336733;28;20319;-67
2022/08/05 20:59:47;;;;;;;3.45;3.15;;;;;27.40;96413.00;;;;8336726;28;20311;-67
2022/08/05 21:04:12;;;;;;;6.72;3.00;;;;;27.30;96421.00;;;;8338584;28;20294;-67
2022/08/05 21:08:15;;;;;;;5.63;3.20;;;;;27.30;96416.00;;;;8340078;28;20225;-67
2022/08/05 21:12:19;;;;;;;5.20;2.83;;;;;27.20;96420.00;;;;8344468;28;20228;-67